Time;durP1;ratioP1;P1;durP2;ratioP2;P2;SDS_P1;SDS_P2;PMS_P1;PMS_P2;Temp;Humidity;BMP_temperature;BMP_pressure;BME280_temperature;BME280_humidity;BME280_pressure;Samples;Min_cycle;Max_cycle;Signal;HPM_P1;HPM_P2
2021/07/31 00:01:30;;;;;;;11.40;6.60;;;21.50;76.20;;;;;;5091214;28;20024;-55
2021/07/31 00:03:55;;;;;;;8.82;6.65;;;21.50;76.20;;;;;;5092728;28;20020;-50
2021/07/31 00:06:21;;;;;;;11.95;7.72;;;21.50;76.00;;;;;;5075082;28;20032;-52
2021/07/31 00:08:47;;;;;;;15.23;7.13;;;21.40;76.60;;;;;;5091408;28;20024;-51
2021/07/31 00:11:39;;;;;;;10.02;6.40;;;21.40;76.70;;;;;;5090558;28;20029;-50
2021/07/31 00:14:04;;;;;;;9.32;6.32;;;21.30;77.00;;;;;;5087485;28;20032;-52
2021/07/31 00:16:30;;;;;;;8.82;6.60;;;21.40;77.00;;;;;;5094209;28;20038;-51
2021/07/31 00:18:56;;;;;;;9.43;7.03;;;21.30;77.10;;;;;;5093752;28;20024;-51
2021/07/31 00:21:22;;;;;;;7.70;6.53;;;21.40;77.20;;;;;;5076210;28;20127;-50
2021/07/31 00:23:48;;;;;;;9.43;7.05;;;21.50;76.70;;;;;;5094484;28;20499;-51
2021/07/31 00:26:13;;;;;;;7.82;7.00;;;21.70;76.30;;;;;;5093840;28;20081;-50
2021/07/31 00:28:39;;;;;;;10.43;6.93;;;21.70;76.00;;;;;;5094676;28;20032;-51
2021/07/31 00:31:04;;;;;;;7.75;6.85;;;21.70;75.90;;;;;;5094197;28;20043;-52
2021/07/31 00:33:30;;;;;;;11.98;6.70;;;21.60;76.40;;;;;;5094279;28;20025;-51
2021/07/31 00:35:57;;;;;;;10.98;7.47;;;21.40;76.90;;;;;;5094087;28;20043;-49
2021/07/31 00:38:23;;;;;;;9.82;6.75;;;21.40;77.20;;;;;;5073736;28;20085;-51
2021/07/31 00:40:48;;;;;;;10.07;7.43;;;21.30;77.40;;;;;;5093652;28;20035;-54
2021/07/31 00:43:14;;;;;;;10.05;6.88;;;21.40;77.30;;;;;;5092855;28;20047;-52
2021/07/31 00:45:40;;;;;;;10.95;7.20;;;21.30;77.40;;;;;;5093645;28;20035;-48
2021/07/31 00:48:05;;;;;;;7.93;7.13;;;21.30;77.60;;;;;;5093946;28;20028;-52
2021/07/31 00:50:32;;;;;;;8.23;7.43;;;21.20;77.90;;;;;;5094219;28;20349;-54
2021/07/31 00:52:59;;;;;;;10.35;7.30;;;21.00;78.40;;;;;;5075649;28;20186;-53
2021/07/31 00:55:26;;;;;;;10.45;7.70;;;21.00;78.80;;;;;;5093724;28;20034;-49
2021/07/31 00:57:52;;;;;;;9.48;7.97;;;21.00;79.00;;;;;;5093437;28;20063;-52
2021/07/31 01:00:17;;;;;;;7.68;6.88;;;21.00;79.60;;;;;;5093698;28;20056;-52
2021/07/31 01:02:43;;;;;;;12.35;7.80;;;20.90;79.20;;;;;;5094679;28;20074;-52
2021/07/31 01:05:10;;;;;;;8.90;8.00;;;20.80;79.50;;;;;;5094028;28;20040;-50
2021/07/31 01:07:36;;;;;;;9.30;7.82;;;20.80;79.70;;;;;;5092703;28;20433;-51
2021/07/31 01:10:03;;;;;;;9.10;7.13;;;20.80;79.90;;;;;;5083376;28;20032;-51
2021/07/31 01:12:30;;;;;;;9.27;8.20;;;20.80;79.80;;;;;;5089837;28;20462;-47
2021/07/31 01:14:55;;;;;;;8.90;8.00;;;20.90;79.60;;;;;;5088231;28;20040;-49
2021/07/31 01:17:21;;;;;;;9.70;7.35;;;20.90;79.70;;;;;;5088063;28;20097;-51
2021/07/31 01:19:46;;;;;;;9.68;8.48;;;20.70;79.90;;;;;;5089051;28;20028;-48
2021/07/31 01:22:12;;;;;;;11.10;7.93;;;20.70;80.20;;;;;;5092523;28;20032;-50
2021/07/31 01:24:38;;;;;;;8.95;7.90;;;20.60;80.50;;;;;;5087977;28;20073;-56
2021/07/31 01:27:04;;;;;;;11.45;9.38;;;20.70;80.20;;;;;;5088807;28;20507;-54
2021/07/31 01:29:30;;;;;;;11.63;9.63;;;20.70;80.40;;;;;;5092936;28;20055;-50
2021/07/31 01:31:56;;;;;;;15.30;12.32;;;20.60;80.20;;;;;;5092807;28;20040;-54
2021/07/31 01:34:21;;;;;;;16.45;14.75;;;20.60;80.00;;;;;;5092985;28;20040;-53
2021/07/31 01:36:47;;;;;;;25.15;20.30;;;20.60;80.20;;;;;;5093215;28;20024;-52
2021/07/31 01:39:12;;;;;;;22.08;17.40;;;20.50;80.70;;;;;;5092500;28;20031;-50
2021/07/31 01:41:38;;;;;;;17.05;15.05;;;20.50;80.50;;;;;;5070542;28;20036;-49
2021/07/31 01:44:04;;;;;;;15.77;12.68;;;20.50;80.50;;;;;;5075141;28;20093;-53
2021/07/31 01:46:29;;;;;;;12.13;10.27;;;20.50;80.40;;;;;;5074276;28;20038;-49
2021/07/31 01:48:55;;;;;;;13.20;10.50;;;20.50;80.80;;;;;;5092419;28;20051;-48
2021/07/31 01:51:21;;;;;;;12.13;9.85;;;20.60;80.20;;;;;;5093030;28;20032;-50
2021/07/31 01:53:46;;;;;;;12.10;10.13;;;20.50;80.50;;;;;;5092736;28;20036;-52
2021/07/31 01:56:12;;;;;;;10.98;9.77;;;20.40;80.50;;;;;;5093029;28;20103;-48
2021/07/31 01:58:38;;;;;;;10.38;9.27;;;20.40;80.90;;;;;;5092916;28;20115;-50
2021/07/31 02:01:03;;;;;;;10.85;9.00;;;20.30;81.40;;;;;;5092014;28;20111;-53
2021/07/31 02:03:29;;;;;;;11.02;8.95;;;20.30;81.30;;;;;;5082266;28;20040;-51
2021/07/31 02:05:55;;;;;;;10.18;8.75;;;20.40;81.30;;;;;;5090958;28;20436;-48
2021/07/31 02:08:21;;;;;;;9.88;8.88;;;20.40;81.40;;;;;;5092216;28;20028;-51
2021/07/31 02:10:47;;;;;;;12.65;8.73;;;20.30;81.80;;;;;;5091766;28;20035;-52
2021/07/31 02:13:13;;;;;;;10.77;8.07;;;20.40;81.50;;;;;;5091798;28;20050;-52
2021/07/31 02:15:43;;;;;;;9.75;8.75;;;20.40;81.40;;;;;;5092209;28;20142;-45
2021/07/31 02:18:09;;;;;;;12.55;8.93;;;20.40;81.60;;;;;;5093098;28;20470;-50
2021/07/31 02:20:35;;;;;;;11.32;7.85;;;20.20;81.90;;;;;;5070348;28;20395;-54
2021/07/31 02:23:01;;;;;;;13.70;8.07;;;20.10;82.10;;;;;;5092475;28;20028;-49
2021/07/31 02:25:27;;;;;;;10.20;8.70;;;20.10;81.70;;;;;;5090902;28;20387;-51
2021/07/31 02:27:53;;;;;;;9.80;8.20;;;20.00;81.80;;;;;;5091188;28;20040;-50
2021/07/31 02:30:18;;;;;;;10.30;7.72;;;19.90;82.30;;;;;;5092141;28;20028;-47
2021/07/31 02:32:44;;;;;;;9.15;7.70;;;19.80;82.50;;;;;;5092161;28;20428;-51
2021/07/31 02:35:11;;;;;;;9.48;7.97;;;19.70;82.70;;;;;;5091587;28;20058;-55
2021/07/31 02:37:36;;;;;;;10.30;7.15;;;19.80;82.40;;;;;;5092103;28;20031;-55
2021/07/31 02:40:02;;;;;;;9.35;7.50;;;19.70;82.70;;;;;;5069191;28;20074;-55
2021/07/31 02:42:28;;;;;;;10.05;7.00;;;19.70;82.30;;;;;;5091487;28;20044;-50
2021/07/31 02:44:54;;;;;;;11.32;7.75;;;19.70;82.20;;;;;;5091649;28;20508;-49
2021/07/31 02:47:19;;;;;;;10.10;7.38;;;19.60;83.50;;;;;;5091126;28;20120;-48
2021/07/31 02:49:45;;;;;;;8.77;6.90;;;19.50;82.90;;;;;;5073761;28;20059;-51
2021/07/31 02:52:10;;;;;;;10.15;6.70;;;19.60;82.60;;;;;;5087912;28;20028;-52
2021/07/31 02:54:36;;;;;;;7.97;6.35;;;19.70;82.50;;;;;;5081384;28;20032;-50
2021/07/31 02:57:02;;;;;;;8.98;6.38;;;19.70;82.00;;;;;;5091099;28;20028;-53
2021/07/31 02:59:27;;;;;;;7.97;5.70;;;19.70;81.70;;;;;;5091204;28;20055;-50
2021/07/31 03:01:53;;;;;;;8.13;5.78;;;19.50;82.10;;;;;;5091183;28;20091;-49
2021/07/31 03:04:18;;;;;;;6.70;5.78;;;19.50;82.10;;;;;;5091447;28;20024;-53
2021/07/31 03:06:44;;;;;;;8.73;6.07;;;19.60;81.70;;;;;;5091045;28;20036;-51
2021/07/31 03:09:09;;;;;;;7.50;5.85;;;19.60;81.90;;;;;;5091215;28;20036;-51
2021/07/31 03:11:35;;;;;;;5.68;5.07;;;19.60;81.60;;;;;;5091505;28;20047;-49
2021/07/31 03:14:00;;;;;;;9.38;5.82;;;19.60;81.20;;;;;;5091856;28;20091;-50
2021/07/31 03:16:26;;;;;;;7.82;5.05;;;19.60;81.00;;;;;;5091605;28;20081;-49
2021/07/31 03:18:52;;;;;;;6.25;4.65;;;19.60;80.60;;;;;;5088268;28;20032;-51
2021/07/31 03:21:17;;;;;;;5.78;5.03;;;19.60;80.60;;;;;;5091091;28;20030;-51
2021/07/31 03:23:43;;;;;;;5.35;4.82;;;19.60;80.20;;;;;;5091592;28;20044;-50
2021/07/31 03:26:08;;;;;;;6.28;4.85;;;19.50;80.60;;;;;;5091360;28;20056;-53
2021/07/31 03:28:34;;;;;;;5.63;4.68;;;19.40;80.50;;;;;;5091111;28;20047;-50
2021/07/31 03:30:59;;;;;;;5.60;4.10;;;19.40;80.70;;;;;;5091789;28;20043;-51
2021/07/31 03:33:25;;;;;;;6.50;4.43;;;19.50;80.00;;;;;;5091673;28;20459;-53
2021/07/31 03:35:52;;;;;;;6.85;4.15;;;19.60;79.30;;;;;;5091563;28;20522;-51
2021/07/31 03:38:18;;;;;;;6.07;4.75;;;19.50;79.10;;;;;;5077379;28;20020;-49
2021/07/31 03:40:44;;;;;;;5.80;4.50;;;19.50;80.20;;;;;;5091840;28;20028;-52
2021/07/31 03:43:12;;;;;;;6.40;4.25;;;19.60;79.00;;;;;;5091244;28;20086;-52
2021/07/31 03:45:37;;;;;;;7.05;4.05;;;19.60;78.90;;;;;;5077612;28;20048;-53
2021/07/31 03:48:03;;;;;;;8.20;4.10;;;19.60;78.10;;;;;;5075209;28;20021;-51
2021/07/31 03:50:29;;;;;;;8.23;3.90;;;19.50;78.90;;;;;;5095888;28;20625;-51
2021/07/31 03:52:54;;;;;;;7.50;3.55;;;19.40;79.30;;;;;;5085753;28;20048;-48
2021/07/31 03:55:20;;;;;;;6.68;3.53;;;19.10;79.50;;;;;;5091419;28;20077;-51
2021/07/31 03:57:46;;;;;;;6.25;4.18;;;19.10;79.60;;;;;;5095682;28;20036;-53
2021/07/31 04:00:12;;;;;;;6.43;3.60;;;19.00;79.60;;;;;;5095979;28;20028;-50
2021/07/31 04:02:37;;;;;;;8.07;3.72;;;18.90;80.00;;;;;;5092814;28;20036;-50
2021/07/31 04:05:03;;;;;;;6.78;3.72;;;18.80;80.40;;;;;;5086866;28;20491;-52
2021/07/31 04:07:29;;;;;;;4.97;3.85;;;18.90;80.10;;;;;;5095317;28;20462;-50
2021/07/31 04:09:54;;;;;;;10.27;4.53;;;18.80;80.20;;;;;;5095318;28;20031;-49
2021/07/31 04:12:20;;;;;;;8.57;4.10;;;18.70;81.20;;;;;;5094924;28;20083;-52
2021/07/31 04:14:45;;;;;;;4.90;3.95;;;18.70;81.20;;;;;;5095300;28;20032;-51
2021/07/31 04:17:14;;;;;;;6.10;3.50;;;18.70;81.30;;;;;;5095146;28;20032;-50
2021/07/31 04:19:40;;;;;;;6.30;3.75;;;18.70;81.60;;;;;;5091313;28;20433;-49
2021/07/31 04:22:05;;;;;;;8.32;4.43;;;18.60;81.80;;;;;;5095754;28;20107;-46
2021/07/31 04:24:31;;;;;;;5.30;3.97;;;18.60;81.70;;;;;;5095034;28;20058;-50
2021/07/31 04:26:57;;;;;;;4.97;3.20;;;18.60;82.10;;;;;;5094231;28;20538;-50
2021/07/31 04:29:22;;;;;;;5.60;3.65;;;18.60;82.50;;;;;;5094426;28;20036;-50
2021/07/31 04:31:48;;;;;;;4.97;3.80;;;18.60;83.00;;;;;;5094225;28;20024;-54
2021/07/31 04:34:13;;;;;;;5.80;4.10;;;18.70;83.40;;;;;;5094953;28;20035;-52
2021/07/31 04:36:39;;;;;;;5.10;4.13;;;18.80;82.70;;;;;;5093979;28;20024;-49
2021/07/31 04:39:05;;;;;;;7.13;4.25;;;19.00;82.40;;;;;;5094655;28;20078;-51
2021/07/31 04:41:32;;;;;;;5.63;4.53;;;18.90;82.70;;;;;;5095322;28;20028;-53
2021/07/31 04:43:57;;;;;;;6.32;4.30;;;18.90;82.90;;;;;;5076622;28;20120;-52
2021/07/31 04:46:23;;;;;;;9.07;4.47;;;19.00;82.70;;;;;;5094686;28;20690;-52
2021/07/31 04:48:49;;;;;;;6.18;4.47;;;19.20;82.40;;;;;;5076604;28;20024;-53
2021/07/31 04:51:15;;;;;;;5.90;4.57;;;19.20;82.00;;;;;;5094359;28;20169;-50
2021/07/31 04:53:40;;;;;;;6.75;4.63;;;19.20;81.40;;;;;;5094905;28;20022;-51
2021/07/31 04:56:06;;;;;;;7.25;4.82;;;19.20;81.60;;;;;;5094427;28;20024;-51
2021/07/31 04:58:32;;;;;;;5.60;4.50;;;19.10;82.60;;;;;;5080288;28;20020;-55
2021/07/31 05:01:01;;;;;;;4.90;4.35;;;19.20;82.10;;;;;;5094901;28;20028;-53
2021/07/31 05:03:27;;;;;;;6.15;4.40;;;19.30;81.40;;;;;;5084772;28;20021;-50
2021/07/31 05:05:53;;;;;;;7.50;4.20;;;19.40;81.10;;;;;;5093287;28;20115;-49
2021/07/31 05:08:19;;;;;;;7.53;4.40;;;19.40;80.00;;;;;;5094025;28;20479;-52
2021/07/31 05:10:47;;;;;;;6.90;4.80;;;19.40;80.20;;;;;;5093942;28;20040;-53
2021/07/31 05:13:13;;;;;;;5.43;3.97;;;19.50;80.10;;;;;;5094427;28;20455;-50
2021/07/31 05:15:40;;;;;;;4.68;4.10;;;19.50;79.90;;;;;;5094615;28;20036;-48
2021/07/31 05:18:07;;;;;;;5.05;3.78;;;19.50;79.50;;;;;;5094413;28;20028;-48
2021/07/31 05:20:33;;;;;;;7.90;4.70;;;19.50;79.30;;;;;;5090201;28;20733;-51
2021/07/31 05:22:59;;;;;;;7.75;4.00;;;19.50;79.90;;;;;;5094367;28;20032;-49
2021/07/31 05:25:25;;;;;;;8.30;4.07;;;19.60;79.30;;;;;;5093712;28;20039;-52
2021/07/31 05:27:51;;;;;;;6.38;3.80;;;19.60;79.20;;;;;;5094240;28;20043;-49
2021/07/31 05:30:16;;;;;;;5.30;3.78;;;19.60;79.20;;;;;;5094194;28;20393;-49
2021/07/31 05:32:42;;;;;;;5.13;3.83;;;19.80;79.30;;;;;;5093749;28;20036;-51
2021/07/31 05:35:08;;;;;;;5.78;3.90;;;19.80;79.10;;;;;;5093376;28;20125;-47
2021/07/31 05:37:34;;;;;;;5.47;3.97;;;19.90;79.10;;;;;;5093414;28;20061;-51
2021/07/31 05:40:00;;;;;;;6.88;3.88;;;19.90;78.50;;;;;;5093243;28;20028;-52
2021/07/31 05:42:26;;;;;;;4.65;3.40;;;19.90;78.60;;;;;;5092130;28;20031;-50
2021/07/31 05:44:57;;;;;;;6.72;3.60;;;19.80;78.00;;;;;;5093827;28;20028;-50
2021/07/31 05:47:25;;;;;;;14.93;4.30;;;19.90;77.90;;;;;;5093421;28;20491;-52
2021/07/31 05:49:51;;;;;;;4.55;3.67;;;19.90;78.20;;;;;;5094479;28;20060;-51
2021/07/31 05:52:18;;;;;;;6.03;3.67;;;20.00;77.60;;;;;;5093230;28;20490;-50
2021/07/31 05:54:44;;;;;;;4.35;3.90;;;20.00;77.60;;;;;;5093868;28;20471;-51
2021/07/31 05:57:09;;;;;;;12.60;3.95;;;20.10;78.10;;;;;;5093815;28;20031;-52
2021/07/31 05:59:35;;;;;;;4.25;3.55;;;20.20;77.50;;;;;;5093378;28;20544;-50
2021/07/31 06:02:00;;;;;;;5.28;3.90;;;20.40;77.50;;;;;;5094097;28;20526;-52
2021/07/31 06:04:26;;;;;;;4.22;3.40;;;20.40;77.30;;;;;;5090723;28;20487;-48
2021/07/31 06:06:52;;;;;;;5.57;3.58;;;20.30;75.80;;;;;;5093042;28;20510;-53
2021/07/31 06:09:17;;;;;;;7.60;3.63;;;20.20;76.00;;;;;;5093106;28;20392;-52
2021/07/31 06:11:43;;;;;;;8.55;3.78;;;20.20;76.70;;;;;;5092303;28;20149;-51
2021/07/31 06:14:08;;;;;;;7.93;4.40;;;20.30;76.00;;;;;;5093030;28;20097;-50
2021/07/31 06:16:34;;;;;;;6.95;3.50;;;20.30;76.10;;;;;;5093170;28;20089;-48
2021/07/31 06:18:59;;;;;;;4.43;3.30;;;20.40;75.60;;;;;;5088043;28;20090;-51
2021/07/31 06:21:25;;;;;;;4.75;3.55;;;20.60;75.70;;;;;;5088311;28;20047;-48
2021/07/31 06:23:50;;;;;;;5.95;3.70;;;20.60;74.60;;;;;;5091916;28;20043;-46
2021/07/31 06:26:16;;;;;;;11.38;3.58;;;20.60;73.70;;;;;;5091953;28;20044;-52
2021/07/31 06:28:42;;;;;;;11.27;3.72;;;20.50;71.60;;;;;;5092317;28;20024;-50
2021/07/31 06:31:08;;;;;;;5.82;3.53;;;20.40;71.80;;;;;;5091331;28;20036;-52
2021/07/31 06:33:33;;;;;;;7.30;3.22;;;20.40;71.40;;;;;;5092083;28;20038;-50
2021/07/31 06:35:59;;;;;;;7.95;3.13;;;20.30;72.00;;;;;;5091769;28;20032;-51
2021/07/31 06:38:24;;;;;;;5.10;2.72;;;20.40;70.60;;;;;;5092052;28;20024;-50
2021/07/31 06:40:50;;;;;;;7.05;2.50;;;20.40;70.20;;;;;;5072723;28;20027;-54
2021/07/31 06:43:16;;;;;;;5.40;2.80;;;20.40;70.30;;;;;;5091588;28;20035;-52
2021/07/31 06:45:41;;;;;;;6.57;2.65;;;20.40;69.60;;;;;;5091135;28;20036;-50
2021/07/31 06:48:07;;;;;;;4.68;2.50;;;20.50;69.50;;;;;;5091507;28;20028;-47
2021/07/31 06:50:32;;;;;;;6.28;2.83;;;20.50;69.30;;;;;;5091654;28;20054;-51
2021/07/31 06:52:58;;;;;;;6.38;2.72;;;20.40;70.00;;;;;;5091399;28;20030;-50
2021/07/31 06:55:23;;;;;;;11.63;3.38;;;20.50;69.70;;;;;;5061474;28;20199;-52
2021/07/31 06:57:49;;;;;;;6.18;3.05;;;20.50;69.80;;;;;;5089155;28;20028;-51
2021/07/31 07:00:14;;;;;;;8.30;3.08;;;20.50;69.80;;;;;;5092034;28;20032;-51
2021/07/31 07:02:40;;;;;;;8.75;3.03;;;20.60;70.20;;;;;;5089881;28;20040;-53
2021/07/31 07:05:06;;;;;;;7.65;3.00;;;20.70;70.20;;;;;;5091387;28;20122;-49
2021/07/31 07:07:31;;;;;;;8.48;3.58;;;20.70;70.30;;;;;;5092508;28;20040;-51
2021/07/31 07:09:57;;;;;;;8.93;2.60;;;20.90;69.60;;;;;;5093013;28;20024;-49
2021/07/31 07:12:23;;;;;;;7.85;2.85;;;21.00;69.90;;;;;;5057606;28;20170;-51
2021/07/31 07:14:48;;;;;;;5.28;2.90;;;21.10;70.40;;;;;;5093161;28;20051;-51
2021/07/31 07:17:14;;;;;;;4.50;2.50;;;21.20;70.00;;;;;;5091057;28;20051;-49
2021/07/31 07:19:39;;;;;;;9.65;3.10;;;21.40;69.00;;;;;;5089880;28;20115;-52
2021/07/31 07:22:05;;;;;;;7.13;2.72;;;21.10;69.70;;;;;;5090974;28;20457;-49
2021/07/31 07:24:34;;;;;;;6.25;2.78;;;21.10;69.60;;;;;;5096242;28;20475;-48
2021/07/31 07:26:59;;;;;;;6.07;2.90;;;20.90;70.10;;;;;;5095941;28;20028;-49
2021/07/31 07:29:25;;;;;;;6.63;2.90;;;20.80;70.10;;;;;;5096284;28;20111;-49
2021/07/31 07:31:50;;;;;;;8.70;3.15;;;20.90;69.50;;;;;;5095776;28;20119;-48
2021/07/31 07:34:16;;;;;;;5.57;2.83;;;20.90;69.40;;;;;;5077811;28;20093;-49
2021/07/31 07:36:41;;;;;;;7.85;3.10;;;20.90;69.20;;;;;;5097339;28;20035;-51
2021/07/31 07:39:07;;;;;;;7.03;3.13;;;21.00;69.70;;;;;;5095523;28;20036;-54
2021/07/31 07:41:33;;;;;;;4.15;2.75;;;21.10;70.20;;;;;;5084877;28;20092;-54
2021/07/31 07:43:58;;;;;;;6.55;2.92;;;21.10;68.80;;;;;;5096462;28;20103;-54
2021/07/31 07:46:24;;;;;;;5.97;2.90;;;21.10;69.40;;;;;;5094670;28;20044;-50
2021/07/31 07:48:50;;;;;;;5.35;2.72;;;21.10;69.10;;;;;;5094629;28;20611;-53
2021/07/31 07:51:16;;;;;;;6.28;3.08;;;21.10;68.40;;;;;;5095495;28;20044;-48
2021/07/31 07:53:42;;;;;;;6.10;2.45;;;21.10;68.20;;;;;;5095967;28;20047;-48
2021/07/31 07:56:07;;;;;;;7.60;2.63;;;21.20;67.60;;;;;;5095583;28;20077;-48
2021/07/31 07:58:33;;;;;;;21.17;3.42;;;21.10;66.40;;;;;;5095446;28;20024;-50
2021/07/31 08:00:58;;;;;;;7.07;3.00;;;21.00;67.60;;;;;;5096261;28;20032;-50
2021/07/31 08:03:24;;;;;;;7.20;2.53;;;21.00;68.50;;;;;;5096150;28;20122;-50
2021/07/31 08:05:50;;;;;;;8.43;2.83;;;21.10;68.50;;;;;;5095292;28;20024;-46
2021/07/31 08:08:15;;;;;;;6.53;2.70;;;21.20;67.00;;;;;;5096098;28;20031;-46
2021/07/31 08:10:41;;;;;;;6.38;2.47;;;21.20;67.60;;;;;;5096651;28;20070;-49
2021/07/31 08:13:06;;;;;;;4.97;2.72;;;21.20;66.70;;;;;;5096225;28;20039;-49
2021/07/31 08:15:32;;;;;;;3.80;2.60;;;21.20;67.10;;;;;;5095295;28;20032;-54
2021/07/31 08:17:58;;;;;;;4.72;2.53;;;21.30;67.10;;;;;;5092159;28;20039;-53
2021/07/31 08:20:24;;;;;;;5.15;2.92;;;21.30;66.30;;;;;;5091272;28;20054;-51
2021/07/31 08:22:50;;;;;;;7.93;2.95;;;21.30;66.10;;;;;;5095308;28;20514;-50
2021/07/31 08:25:15;;;;;;;5.85;2.60;;;21.40;66.40;;;;;;5094784;28;20024;-52
2021/07/31 08:27:41;;;;;;;6.72;2.97;;;21.20;66.40;;;;;;5094582;28;20032;-51
2021/07/31 08:30:08;;;;;;;3.78;2.60;;;21.10;66.30;;;;;;5094804;28;20048;-50
2021/07/31 08:32:33;;;;;;;7.30;2.70;;;21.20;66.80;;;;;;5094513;28;20036;-47
2021/07/31 08:35:02;;;;;;;4.18;2.60;;;21.40;66.80;;;;;;5094602;28;20020;-51
2021/07/31 08:37:28;;;;;;;6.15;2.70;;;21.50;66.40;;;;;;5071554;28;20075;-52
2021/07/31 08:39:54;;;;;;;7.32;2.80;;;21.60;65.50;;;;;;5092617;28;20426;-48
2021/07/31 08:42:20;;;;;;;5.40;3.05;;;21.50;65.80;;;;;;5074740;28;20027;-52
2021/07/31 08:44:45;;;;;;;6.57;2.70;;;21.30;66.10;;;;;;5093466;28;20024;-51
2021/07/31 08:47:13;;;;;;;6.47;2.28;;;21.30;66.60;;;;;;5093170;28;20385;-51
2021/07/31 08:49:44;;;;;;;8.20;2.90;;;21.30;66.00;;;;;;5091352;28;20115;-53
2021/07/31 08:52:12;;;;;;;5.13;2.60;;;21.40;66.00;;;;;;5090904;28;20101;-55
2021/07/31 08:54:39;;;;;;;6.60;2.70;;;21.10;65.40;;;;;;5092256;28;20043;-54
2021/07/31 08:57:08;;;;;;;5.35;3.15;;;21.20;65.40;;;;;;5094589;28;20032;-51
2021/07/31 08:59:33;;;;;;;6.07;2.55;;;21.20;65.80;;;;;;5087640;28;20059;-55
2021/07/31 09:01:59;;;;;;;3.83;2.40;;;21.20;66.40;;;;;;5091044;28;20062;-48
2021/07/31 09:04:26;;;;;;;7.10;2.70;;;21.50;66.20;;;;;;5090836;28;20031;-44
2021/07/31 09:06:51;;;;;;;6.85;2.83;;;21.70;65.40;;;;;;5093368;28;20020;-46
2021/07/31 09:09:28;;;;;;;6.47;2.80;;;21.60;65.40;;;;;;5092811;28;20463;-44
2021/07/31 09:11:59;;;;;;;6.05;3.22;;;21.70;65.30;;;;;;5092082;28;20040;-44
2021/07/31 09:14:25;;;;;;;6.25;2.70;;;21.60;65.30;;;;;;5091079;28;20041;-46
2021/07/31 09:16:51;;;;;;;5.00;2.78;;;21.80;64.90;;;;;;5076992;28;20071;-48
2021/07/31 09:19:18;;;;;;;5.10;2.50;;;21.60;64.60;;;;;;5070695;28;20054;-45
2021/07/31 09:21:44;;;;;;;4.40;2.47;;;21.40;65.40;;;;;;5092652;28;20012;-43
2021/07/31 09:24:21;;;;;;;6.93;2.70;;;21.30;65.70;;;;;;5097199;28;20153;-46
2021/07/31 09:26:50;;;;;;;9.55;2.85;;;21.50;65.20;;;;;;5094545;28;20506;-45
2021/07/31 09:29:35;;;;;;;3.45;2.30;;;21.50;65.00;;;;;;5094398;28;20036;-44
2021/07/31 09:32:03;;;;;;;7.65;2.85;;;21.60;65.30;;;;;;5091624;28;20036;-51
2021/07/31 09:34:36;;;;;;;7.00;2.70;;;21.60;65.10;;;;;;5093691;28;20028;-51
2021/07/31 09:37:17;;;;;;;6.70;2.70;;;21.60;64.70;;;;;;5090460;28;20040;-47
2021/07/31 09:39:59;;;;;;;8.13;2.88;;;21.50;65.20;;;;;;5092142;28;20468;-52
2021/07/31 09:42:38;;;;;;;6.78;2.95;;;21.40;65.10;;;;;;5091890;28;20028;-50
2021/07/31 09:45:09;;;;;;;4.07;2.33;;;21.50;65.50;;;;;;5074627;28;20081;-48
2021/07/31 09:47:36;;;;;;;4.30;2.63;;;21.70;64.80;;;;;;5091908;28;20487;-47
2021/07/31 09:50:03;;;;;;;5.32;3.28;;;21.60;65.20;;;;;;5092353;28;20043;-47
2021/07/31 09:52:29;;;;;;;3.67;2.50;;;21.80;65.00;;;;;;5092663;28;20081;-46
2021/07/31 09:54:57;;;;;;;4.80;2.78;;;21.80;64.60;;;;;;5092516;28;20028;-49
2021/07/31 09:57:28;;;;;;;5.40;2.70;;;21.90;63.90;;;;;;5092057;28;20020;-46
2021/07/31 09:59:59;;;;;;;8.05;2.45;;;21.90;64.20;;;;;;5092524;28;20047;-51
2021/07/31 10:02:27;;;;;;;4.53;2.95;;;22.00;64.70;;;;;;5092254;28;20039;-45
2021/07/31 10:04:53;;;;;;;5.38;2.40;;;21.90;63.90;;;;;;5093762;28;20036;-48
2021/07/31 10:07:20;;;;;;;4.50;2.70;;;21.90;64.50;;;;;;5089909;28;20031;-49
2021/07/31 10:09:52;;;;;;;5.13;2.60;;;22.00;65.30;;;;;;5092165;28;20016;-45
2021/07/31 10:12:26;;;;;;;8.95;2.83;;;22.00;64.40;;;;;;5091869;28;20032;-45
2021/07/31 10:14:52;;;;;;;5.47;2.80;;;22.00;64.20;;;;;;5092367;28;20024;-45
2021/07/31 10:17:26;;;;;;;4.07;2.80;;;21.90;64.10;;;;;;5091603;28;20045;-49
2021/07/31 10:19:52;;;;;;;5.93;2.60;;;22.00;64.10;;;;;;5093274;28;20042;-49
2021/07/31 10:22:18;;;;;;;4.38;2.40;;;21.90;63.60;;;;;;5090616;28;20045;-48
2021/07/31 10:25:05;;;;;;;3.08;2.40;;;22.00;63.60;;;;;;5091640;28;20085;-44
2021/07/31 10:27:33;;;;;;;6.05;2.75;;;22.30;63.80;;;;;;5090921;28;20040;-44
2021/07/31 10:30:00;;;;;;;6.18;2.65;;;22.40;63.60;;;;;;5092211;28;20364;-46
2021/07/31 10:32:29;;;;;;;5.82;3.17;;;22.50;63.20;;;;;;5073074;28;20036;-46
2021/07/31 10:34:57;;;;;;;3.78;2.50;;;22.70;63.10;;;;;;5091717;28;20028;-48
2021/07/31 10:37:31;;;;;;;6.55;2.65;;;23.10;62.00;;;;;;5091196;28;20586;-45
2021/07/31 10:40:10;;;;;;;4.72;2.58;;;23.20;61.30;;;;;;5074398;28;20368;-52
2021/07/31 10:42:51;;;;;;;5.75;2.33;;;23.00;60.70;;;;;;5093073;28;20036;-47
2021/07/31 10:45:16;;;;;;;7.68;3.00;;;22.70;61.20;;;;;;5091663;28;20129;-44
2021/07/31 10:47:45;;;;;;;5.88;2.30;;;22.90;61.90;;;;;;5092356;28;20647;-46
2021/07/31 10:50:26;;;;;;;5.47;2.67;;;23.10;61.10;;;;;;5092775;28;20034;-48
2021/07/31 10:53:00;;;;;;;3.22;2.40;;;23.00;62.00;;;;;;5086479;28;20036;-47
2021/07/31 10:55:27;;;;;;;;;;;23.10;61.80;;;;;;5092707;28;20036;-46
2021/07/31 10:57:52;;;;;;;7.25;2.90;;;23.20;61.90;;;;;;5092237;28;19919;-47
2021/07/31 11:00:34;;;;;;;5.65;2.70;;;22.90;62.30;;;;;;5073921;28;20042;-45
2021/07/31 11:03:04;;;;;;;5.30;2.60;;;22.60;62.30;;;;;;5092185;28;20020;-46
2021/07/31 11:05:51;;;;;;;4.80;2.40;;;22.60;62.80;;;;;;5092474;28;20029;-44
2021/07/31 11:08:18;;;;;;;3.63;2.72;;;22.30;64.30;;;;;;5079372;28;20429;-46
2021/07/31 11:10:51;;;;;;;6.90;2.47;;;22.30;63.20;;;;;;5092270;28;20048;-45
2021/07/31 11:13:16;;;;;;;4.28;2.85;;;22.10;63.30;;;;;;5092291;28;20040;-45
2021/07/31 11:16:00;;;;;;;7.68;3.15;;;22.20;63.50;;;;;;5092329;28;20495;-45
2021/07/31 11:18:43;;;;;;;2.90;2.20;;;22.40;63.90;;;;;;5092641;28;20035;-49
2021/07/31 11:21:26;;;;;;;3.63;2.20;;;22.50;63.00;;;;;;5083929;28;20028;-44
2021/07/31 11:23:56;;;;;;;5.28;2.50;;;22.60;62.90;;;;;;5092017;28;20032;-49
2021/07/31 11:26:38;;;;;;;7.90;2.55;;;22.70;62.90;;;;;;5092951;28;20040;-47
2021/07/31 11:29:23;;;;;;;2.83;2.20;;;22.60;62.50;;;;;;5091358;28;20028;-53
2021/07/31 11:32:12;;;;;;;8.60;2.47;;;22.70;62.60;;;;;;5091830;28;20059;-44
2021/07/31 11:34:45;;;;;;;2.58;2.13;;;22.60;62.60;;;;;;5089807;28;20031;-48
2021/07/31 11:37:12;;;;;;;5.38;2.60;;;22.60;62.60;;;;;;5072388;28;20036;-45
2021/07/31 11:39:38;;;;;;;4.20;2.55;;;22.50;63.20;;;;;;5074374;28;20483;-43
2021/07/31 11:42:05;;;;;;;6.72;2.33;;;22.80;62.90;;;;;;5091631;28;20476;-45
2021/07/31 11:44:36;;;;;;;2.92;2.33;;;23.00;62.90;;;;;;5073557;28;20507;-44
2021/07/31 11:47:02;;;;;;;10.57;2.78;;;23.10;61.70;;;;;;5091455;28;20032;-48
2021/07/31 11:49:30;;;;;;;16.40;3.50;;;22.80;61.80;;;;;;5092341;28;20059;-49
2021/07/31 11:52:01;;;;;;;3.92;2.50;;;23.10;62.50;;;;;;5074163;28;20032;-48
2021/07/31 11:54:28;;;;;;;4.22;2.65;;;23.30;62.30;;;;;;5092181;28;20022;-44
2021/07/31 11:56:56;;;;;;;6.57;2.63;;;23.30;61.70;;;;;;5073485;28;20038;-44
2021/07/31 11:59:23;;;;;;;5.07;2.90;;;23.00;61.80;;;;;;5091673;28;20032;-44
2021/07/31 12:01:52;;;;;;;4.82;2.60;;;23.10;62.10;;;;;;5091529;28;20056;-45
2021/07/31 12:04:44;;;;;;;5.97;2.15;;;23.10;62.10;;;;;;5091772;28;20149;-44
2021/07/31 12:07:14;;;;;;;5.78;2.40;;;23.30;61.70;;;;;;5090164;28;20050;-46
2021/07/31 12:09:41;;;;;;;4.70;2.30;;;23.10;61.20;;;;;;5093286;28;20089;-44
2021/07/31 12:12:41;;;;;;;4.93;2.40;;;23.10;61.20;;;;;;5094554;28;20032;-47
2021/07/31 12:15:10;;;;;;;9.00;2.25;;;23.10;61.80;;;;;;5099702;28;20112;-56
2021/07/31 12:18:02;;;;;;;4.35;2.50;;;22.80;62.70;;;;;;5093708;28;20028;-44
2021/07/31 12:20:41;;;;;;;7.18;2.50;;;22.80;62.60;;;;;;5092994;28;20036;-49
2021/07/31 12:23:09;;;;;;;4.70;2.58;;;22.90;61.70;;;;;;5094034;28;20511;-47
2021/07/31 12:25:37;;;;;;;4.78;2.40;;;23.30;61.40;;;;;;5094235;28;20042;-48
2021/07/31 12:28:09;;;;;;;103.07;23.70;;;23.40;62.10;;;;;;5094680;28;20119;-47
2021/07/31 12:30:34;;;;;;;4.05;2.40;;;23.60;60.50;;;;;;5094908;28;20035;-49
2021/07/31 12:33:06;;;;;;;5.35;2.50;;;23.30;60.80;;;;;;5095226;28;20028;-45
2021/07/31 12:35:58;;;;;;;8.23;2.60;;;23.20;60.60;;;;;;5095455;28;20056;-50
2021/07/31 12:38:26;;;;;;;3.92;2.72;;;23.10;61.70;;;;;;5095177;28;20052;-47
2021/07/31 12:40:57;;;;;;;5.00;2.70;;;22.80;61.70;;;;;;5094768;28;20498;-48
2021/07/31 12:43:25;;;;;;;7.28;2.58;;;22.90;62.30;;;;;;5094308;28;20067;-47
2021/07/31 12:45:59;;;;;;;5.40;2.30;;;23.00;60.80;;;;;;5076662;28;20399;-55
2021/07/31 12:48:25;;;;;;;5.38;2.50;;;23.00;61.20;;;;;;5095029;28;20076;-54